Time;durP1;ratioP1;P1;durP2;ratioP2;P2;SDS_P1;SDS_P2;PMS_P1;PMS_P2;Temp;Humidity;BMP_temperature;BMP_pressure;BME280_temperature;BME280_humidity;BME280_pressure;Samples;Min_cycle;Max_cycle;Signal;HPM_P1;HPM_P2
2023/12/01 00:00:06;;;;;;;7.82;4.80;;;7.60;70.50;;;;;;2523036;54;20960;-67
2023/12/01 00:02:32;;;;;;;11.07;5.60;;;7.60;70.60;;;;;;2523192;54;21062;-67
2023/12/01 00:04:59;;;;;;;12.48;5.28;;;7.60;70.60;;;;;;2516942;54;21616;-68
2023/12/01 00:07:25;;;;;;;9.43;5.60;;;7.60;70.60;;;;;;2288672;54;20940;-69
2023/12/01 00:09:52;;;;;;;8.40;5.12;;;7.60;70.60;;;;;;2288401;55;21255;-68
2023/12/01 00:12:18;;;;;;;11.80;5.90;;;7.60;70.70;;;;;;2288099;55;21448;-67
2023/12/01 00:14:53;;;;;;;8.85;5.03;;;7.50;70.60;;;;;;2523277;54;20964;-68
2023/12/01 00:17:19;;;;;;;7.12;4.30;;;7.50;70.60;;;;;;2519917;54;21262;-67
2023/12/01 00:19:45;;;;;;;9.10;4.72;;;7.60;70.80;;;;;;2519071;54;20967;-68
2023/12/01 00:22:12;;;;;;;8.38;4.35;;;7.50;70.80;;;;;;2288324;55;20975;-68
2023/12/01 00:24:38;;;;;;;8.85;4.87;;;7.60;70.90;;;;;;2288289;55;21525;-68
2023/12/01 00:27:05;;;;;;;9.35;5.00;;;7.60;70.90;;;;;;2521609;54;21015;-69
2023/12/01 00:29:32;;;;;;;8.30;5.03;;;7.50;70.80;;;;;;2522972;54;21034;-66
2023/12/01 00:31:58;;;;;;;9.43;5.57;;;7.60;70.90;;;;;;2287797;55;21239;-68
2023/12/01 00:34:27;;;;;;;9.55;5.62;;;7.50;70.70;;;;;;2288266;55;21082;-69
2023/12/01 00:36:55;;;;;;;9.80;5.87;;;7.50;71.30;;;;;;2288282;56;21320;-68
2023/12/01 00:39:21;;;;;;;9.98;6.12;;;7.50;70.50;;;;;;2522875;54;21067;-69
2023/12/01 00:41:49;;;;;;;8.10;5.20;;;7.50;70.60;;;;;;2522438;54;21500;-67
2023/12/01 00:44:20;;;;;;;10.65;5.30;;;7.50;70.70;;;;;;2523304;54;20958;-68
2023/12/01 00:46:46;;;;;;;8.95;5.30;;;7.50;70.70;;;;;;2521562;54;21023;-67
2023/12/01 00:49:12;;;;;;;7.45;4.70;;;7.50;70.80;;;;;;2286168;54;21671;-68
2023/12/01 00:51:43;;;;;;;7.40;4.62;;;7.50;70.90;;;;;;2286917;55;21141;-68
2023/12/01 00:54:10;;;;;;;8.25;5.10;;;7.50;71.60;;;;;;2522313;54;21895;-69
2023/12/01 00:56:38;;;;;;;8.00;4.45;;;7.50;70.90;;;;;;2523228;54;21413;-69
2023/12/01 00:59:04;;;;;;;8.68;5.30;;;7.50;70.90;;;;;;2287996;55;20971;-69
2023/12/01 01:01:33;;;;;;;8.70;4.85;;;7.50;70.80;;;;;;2522472;54;20948;-67
2023/12/01 01:03:59;;;;;;;7.90;5.15;;;7.50;70.80;;;;;;2287483;55;20983;-67
2023/12/01 01:06:26;;;;;;;9.82;5.93;;;7.50;70.70;;;;;;2288160;55;21252;-67
2023/12/01 01:08:52;;;;;;;9.35;5.57;;;7.40;70.50;;;;;;2520632;54;20982;-68
2023/12/01 01:11:23;;;;;;;12.00;5.97;;;7.40;70.40;;;;;;2285168;55;20955;-66
2023/12/01 01:13:49;;;;;;;9.75;6.18;;;7.40;70.30;;;;;;2288510;55;21027;-67
2023/12/01 01:16:16;;;;;;;9.82;5.60;;;7.40;70.30;;;;;;2287999;55;20943;-68
2023/12/01 01:18:43;;;;;;;9.50;5.70;;;7.40;70.40;;;;;;2523350;54;21008;-67
2023/12/01 01:21:09;;;;;;;11.00;6.68;;;7.30;70.30;;;;;;2287943;55;21777;-68
2023/12/01 01:23:36;;;;;;;9.48;5.82;;;7.30;70.20;;;;;;2288504;55;20983;-69
2023/12/01 01:26:02;;;;;;;10.27;6.32;;;7.30;70.30;;;;;;2519370;54;21506;-68
2023/12/01 01:28:31;;;;;;;10.02;6.30;;;7.20;70.20;;;;;;2518224;55;21279;-69
2023/12/01 01:31:06;;;;;;;10.27;6.35;;;7.20;70.30;;;;;;2520754;54;21027;-69
2023/12/01 01:33:33;;;;;;;9.73;5.85;;;7.20;70.30;;;;;;2289076;55;20980;-68
2023/12/01 01:35:59;;;;;;;10.00;5.95;;;7.20;70.30;;;;;;2522375;54;21736;-68
2023/12/01 01:38:25;;;;;;;10.13;6.00;;;7.10;70.40;;;;;;2523056;54;21579;-67
2023/12/01 01:40:54;;;;;;;9.93;6.85;;;7.10;70.50;;;;;;2522973;54;20966;-67
2023/12/01 01:43:23;;;;;;;12.48;6.97;;;7.10;70.50;;;;;;2288793;55;20983;-69
2023/12/01 01:45:55;;;;;;;10.80;6.55;;;7.10;70.60;;;;;;2288052;55;20939;-68
2023/12/01 01:48:21;;;;;;;8.13;5.47;;;7.10;70.60;;;;;;2522911;54;21003;-67
2023/12/01 01:50:47;;;;;;;9.40;6.15;;;7.10;70.60;;;;;;2523152;54;20967;-69
2023/12/01 01:53:14;;;;;;;8.25;4.82;;;7.00;70.50;;;;;;2522998;54;20952;-68
2023/12/01 01:55:40;;;;;;;8.40;5.00;;;7.00;70.60;;;;;;2285965;55;20968;-68
2023/12/01 01:58:07;;;;;;;8.82;5.07;;;7.00;70.80;;;;;;2288058;55;21085;-67
2023/12/01 02:00:35;;;;;;;9.57;5.25;;;7.00;70.90;;;;;;2519123;54;20987;-68
2023/12/01 02:03:02;;;;;;;8.40;4.93;;;7.00;71.00;;;;;;2520703;54;20968;-67
2023/12/01 02:05:28;;;;;;;8.80;5.57;;;7.00;71.00;;;;;;2287592;55;21099;-67
2023/12/01 02:07:55;;;;;;;8.25;5.20;;;7.00;70.90;;;;;;2519393;54;21587;-68
2023/12/01 02:10:21;;;;;;;9.00;5.55;;;7.00;70.90;;;;;;2285773;55;21050;-67
2023/12/01 02:12:47;;;;;;;9.13;5.65;;;7.00;70.90;;;;;;2523068;54;20951;-69
2023/12/01 02:15:14;;;;;;;10.10;5.40;;;7.00;70.80;;;;;;2521859;54;21013;-67
2023/12/01 02:17:42;;;;;;;8.85;5.80;;;7.00;70.80;;;;;;2288940;55;20995;-67
2023/12/01 02:20:14;;;;;;;7.62;5.03;;;7.00;70.80;;;;;;2521047;54;21500;-68
2023/12/01 02:22:43;;;;;;;10.48;5.90;;;7.00;70.80;;;;;;2523106;54;20935;-68
2023/12/01 02:25:09;;;;;;;8.32;5.15;;;7.00;70.80;;;;;;2286816;55;21035;-68
2023/12/01 02:27:35;;;;;;;8.02;5.03;;;7.00;70.80;;;;;;2522520;54;20992;-69
2023/12/01 02:30:02;;;;;;;7.87;5.12;;;7.00;70.80;;;;;;2522151;54;21012;-69
2023/12/01 02:32:28;;;;;;;10.50;5.80;;;7.00;70.80;;;;;;2522706;54;20939;-69
2023/12/01 02:34:54;;;;;;;9.05;5.65;;;6.90;70.70;;;;;;2522187;54;21014;-67
2023/12/01 02:37:21;;;;;;;11.25;6.05;;;6.90;70.60;;;;;;2287951;55;21044;-68
2023/12/01 02:39:47;;;;;;;10.07;6.05;;;6.90;70.50;;;;;;2523249;54;20947;-68
2023/12/01 02:42:13;;;;;;;9.45;6.03;;;6.90;70.40;;;;;;2522017;54;20963;-68
2023/12/01 02:44:40;;;;;;;10.63;6.05;;;6.90;70.40;;;;;;2288101;55;20941;-70
2023/12/01 02:47:09;;;;;;;9.50;6.05;;;6.90;70.50;;;;;;2521666;54;20952;-69
2023/12/01 02:49:36;;;;;;;9.82;5.90;;;6.90;70.50;;;;;;2517854;54;21022;-69
2023/12/01 02:52:02;;;;;;;9.18;5.65;;;6.80;70.50;;;;;;2287407;54;20955;-67
2023/12/01 02:54:28;;;;;;;10.52;5.28;;;6.80;70.50;;;;;;2522994;54;21358;-68
2023/12/01 02:56:55;;;;;;;9.05;5.82;;;6.80;70.40;;;;;;2523350;54;21019;-67
2023/12/01 02:59:21;;;;;;;8.07;5.20;;;6.80;70.50;;;;;;2288829;55;20998;-68
2023/12/01 03:01:47;;;;;;;7.87;5.10;;;6.80;70.70;;;;;;2522086;54;20971;-67
2023/12/01 03:04:15;;;;;;;10.10;5.95;;;6.80;70.70;;;;;;2522095;54;20944;-69
2023/12/01 03:06:41;;;;;;;8.30;5.28;;;6.80;70.80;;;;;;2523384;54;20983;-68
2023/12/01 03:09:16;;;;;;;10.95;6.30;;;6.80;70.70;;;;;;2287655;55;20971;-67
2023/12/01 03:11:46;;;;;;;7.65;5.00;;;6.80;71.50;;;;;;2288533;55;21404;-67
2023/12/01 03:14:13;;;;;;;8.32;5.03;;;6.70;70.70;;;;;;2520146;54;21107;-69
2023/12/01 03:16:40;;;;;;;8.10;5.15;;;6.60;70.70;;;;;;2522719;54;21396;-68
2023/12/01 03:19:08;;;;;;;8.38;5.45;;;6.70;70.90;;;;;;2287840;55;20991;-69
2023/12/01 03:21:35;;;;;;;9.40;5.70;;;6.70;70.90;;;;;;2288612;55;20968;-69
2023/12/01 03:24:02;;;;;;;9.60;5.62;;;6.70;70.80;;;;;;2288830;55;21066;-68
2023/12/01 03:26:28;;;;;;;8.20;5.55;;;6.80;70.80;;;;;;2284733;55;21027;-68
2023/12/01 03:28:54;;;;;;;9.77;5.35;;;6.70;70.70;;;;;;2288650;55;20960;-67
2023/12/01 03:31:21;;;;;;;7.60;5.25;;;6.70;70.80;;;;;;2288421;55;20982;-68
2023/12/01 03:33:50;;;;;;;8.65;5.32;;;6.70;70.80;;;;;;2520250;54;21026;-68
2023/12/01 03:36:16;;;;;;;9.60;6.43;;;6.70;70.70;;;;;;2522034;54;21003;-67
2023/12/01 03:38:43;;;;;;;10.23;6.37;;;6.70;70.60;;;;;;2288766;55;20995;-68
2023/12/01 03:41:09;;;;;;;10.07;6.45;;;6.70;70.50;;;;;;2522248;54;20947;-67
2023/12/01 03:43:35;;;;;;;9.13;5.97;;;6.70;70.50;;;;;;2288043;55;20955;-67
2023/12/01 03:46:05;;;;;;;10.20;6.60;;;6.70;70.40;;;;;;2522403;54;20984;-69
2023/12/01 03:48:34;;;;;;;10.23;5.90;;;6.50;70.20;;;;;;2523161;54;21046;-70
2023/12/01 03:51:01;;;;;;;9.68;6.25;;;6.60;70.30;;;;;;2288185;55;20947;-67
2023/12/01 03:53:30;;;;;;;9.77;5.87;;;6.70;70.50;;;;;;2522904;54;20959;-68
2023/12/01 03:56:00;;;;;;;8.93;5.68;;;6.60;70.40;;;;;;2287156;55;21488;-69
2023/12/01 03:58:26;;;;;;;10.02;5.87;;;6.60;70.40;;;;;;2523059;54;21039;-67
2023/12/01 04:00:52;;;;;;;10.27;6.80;;;6.60;70.40;;;;;;2518130;54;22063;-67
2023/12/01 04:03:19;;;;;;;9.88;6.18;;;6.50;70.40;;;;;;2522346;54;21516;-69
2023/12/01 04:05:46;;;;;;;10.82;5.95;;;6.50;70.50;;;;;;2522983;54;20999;-67
2023/12/01 04:08:15;;;;;;;10.23;6.25;;;6.50;70.50;;;;;;2522427;54;21811;-68
2023/12/01 04:10:43;;;;;;;11.70;6.62;;;6.50;70.40;;;;;;2291279;55;21044;-67
2023/12/01 04:13:12;;;;;;;10.70;6.40;;;6.50;70.40;;;;;;2287718;55;20974;-69
2023/12/01 04:15:40;;;;;;;10.43;6.45;;;6.50;70.50;;;;;;2523331;54;20979;-67
2023/12/01 04:18:06;;;;;;;10.43;6.40;;;6.40;70.40;;;;;;2522291;54;20975;-67
2023/12/01 04:20:38;;;;;;;10.05;6.18;;;6.40;70.40;;;;;;2288455;55;21047;-67
2023/12/01 04:23:09;;;;;;;10.90;6.47;;;6.40;70.40;;;;;;2287874;55;21477;-69
2023/12/01 04:25:36;;;;;;;8.32;5.10;;;6.40;70.40;;;;;;2522241;54;21063;-67
2023/12/01 04:28:04;;;;;;;8.30;5.50;;;6.40;70.40;;;;;;2517898;54;20983;-68
2023/12/01 04:30:31;;;;;;;9.40;5.55;;;6.40;70.50;;;;;;2287736;55;21169;-69
2023/12/01 04:32:59;;;;;;;8.13;5.75;;;6.40;70.60;;;;;;2288171;55;20947;-67
2023/12/01 04:35:30;;;;;;;8.57;5.82;;;6.40;70.80;;;;;;2287357;55;20964;-69
2023/12/01 04:37:58;;;;;;;9.65;6.03;;;6.40;70.90;;;;;;2288598;55;20939;-70
2023/12/01 04:40:24;;;;;;;7.45;4.70;;;6.40;71.00;;;;;;2287484;55;21035;-69
2023/12/01 04:42:51;;;;;;;7.65;4.72;;;6.20;70.80;;;;;;2523127;54;21387;-67
2023/12/01 04:45:19;;;;;;;7.25;4.65;;;6.40;71.00;;;;;;2521596;54;20980;-67
2023/12/01 04:47:50;;;;;;;7.12;4.28;;;6.40;71.00;;;;;;2288983;54;21797;-68
2023/12/01 04:50:18;;;;;;;8.48;5.35;;;6.40;70.90;;;;;;2519707;54;21054;-69
2023/12/01 04:52:46;;;;;;;8.82;4.90;;;6.40;70.80;;;;;;2288434;54;21038;-67
2023/12/01 04:55:16;;;;;;;8.77;5.50;;;6.40;70.80;;;;;;2522356;54;20947;-68
2023/12/01 04:57:42;;;;;;;8.98;5.05;;;6.40;70.70;;;;;;2520670;54;21022;-69
2023/12/01 05:00:21;;;;;;;8.27;5.00;;;6.40;70.70;;;;;;2518951;54;21083;-67
2023/12/01 05:03:05;;;;;;;8.35;4.55;;;6.40;70.70;;;;;;2288443;55;20972;-67
2023/12/01 05:05:36;;;;;;;7.10;4.80;;;6.40;70.40;;;;;;2288604;55;20980;-67
2023/12/01 05:08:04;;;;;;;7.15;4.97;;;6.40;70.60;;;;;;2287976;55;20988;-69
2023/12/01 05:10:33;;;;;;;7.70;4.60;;;6.40;70.60;;;;;;2522480;54;21275;-67
2023/12/01 05:13:04;;;;;;;7.28;4.32;;;6.40;70.60;;;;;;2517491;54;21839;-67
2023/12/01 05:15:32;;;;;;;8.70;5.20;;;6.40;70.60;;;;;;2286965;55;21310;-68
2023/12/01 05:18:00;;;;;;;8.05;5.10;;;6.40;70.60;;;;;;2522826;54;20975;-68
2023/12/01 05:20:27;;;;;;;8.50;5.55;;;6.40;70.70;;;;;;2287876;55;21409;-68
2023/12/01 05:22:55;;;;;;;7.22;4.78;;;6.40;70.70;;;;;;2287913;54;20961;-67
2023/12/01 05:25:21;;;;;;;9.77;5.72;;;6.40;70.70;;;;;;2519998;54;20950;-68
2023/12/01 05:27:52;;;;;;;8.38;5.55;;;6.30;70.50;;;;;;2288452;55;20962;-66
2023/12/01 05:30:21;;;;;;;8.68;5.15;;;6.40;70.60;;;;;;2521708;54;21035;-68
2023/12/01 05:32:50;;;;;;;7.95;5.10;;;6.30;70.60;;;;;;2523058;54;21011;-67
2023/12/01 05:35:16;;;;;;;7.95;4.93;;;6.30;70.70;;;;;;2522022;54;20991;-69
2023/12/01 05:37:48;;;;;;;8.95;5.53;;;6.40;70.80;;;;;;2523009;54;20967;-69
2023/12/01 05:40:20;;;;;;;9.00;5.70;;;6.30;70.80;;;;;;2522262;54;21080;-67
2023/12/01 05:42:47;;;;;;;8.48;5.60;;;6.40;70.80;;;;;;2288633;55;22014;-69
2023/12/01 05:45:14;;;;;;;8.50;5.45;;;6.40;70.90;;;;;;2522307;54;20972;-67
2023/12/01 05:47:44;;;;;;;8.77;4.62;;;6.30;70.80;;;;;;2522977;54;21019;-68
2023/12/01 05:50:20;;;;;;;6.50;4.30;;;6.40;70.80;;;;;;2288302;55;20991;-68
2023/12/01 05:52:46;;;;;;;6.85;4.55;;;6.40;70.70;;;;;;2523119;54;21212;-66
2023/12/01 05:55:16;;;;;;;8.02;5.37;;;6.40;70.70;;;;;;2522397;54;21023;-67
2023/12/01 05:58:04;;;;;;;8.27;5.00;;;6.40;70.60;;;;;;2522884;54;20967;-69
2023/12/01 06:00:31;;;;;;;7.68;4.50;;;6.30;70.40;;;;;;2288297;55;20963;-68
2023/12/01 06:03:06;;;;;;;8.50;4.87;;;6.30;70.40;;;;;;2523103;54;20971;-67
2023/12/01 06:05:32;;;;;;;8.52;5.15;;;6.30;70.40;;;;;;2522717;54;21134;-69
2023/12/01 06:08:00;;;;;;;7.82;5.03;;;6.30;70.40;;;;;;2522678;54;21368;-67
2023/12/01 06:10:27;;;;;;;7.93;4.80;;;6.30;70.40;;;;;;2515654;54;20934;-68
2023/12/01 06:12:53;;;;;;;8.40;4.68;;;6.30;70.30;;;;;;2517578;54;20968;-67
2023/12/01 06:15:20;;;;;;;9.07;5.60;;;6.30;70.30;;;;;;2518223;54;21046;-68
2023/12/01 06:17:47;;;;;;;8.63;4.90;;;6.20;70.20;;;;;;2288053;54;21015;-69
2023/12/01 06:20:18;;;;;;;8.95;4.90;;;6.20;70.20;;;;;;2522182;54;21316;-68
2023/12/01 06:22:57;;;;;;;8.43;5.12;;;6.20;70.10;;;;;;2520903;54;21090;-68
2023/12/01 06:25:27;;;;;;;8.82;5.22;;;6.20;70.10;;;;;;2286456;54;21016;-69
2023/12/01 06:27:57;;;;;;;8.57;4.95;;;6.20;70.00;;;;;;2518064;54;20948;-69
2023/12/01 06:30:27;;;;;;;8.30;4.57;;;6.20;70.00;;;;;;2521343;54;21003;-69
2023/12/01 06:32:53;;;;;;;8.60;5.22;;;6.10;69.90;;;;;;2522710;54;21133;-68
2023/12/01 06:35:20;;;;;;;7.87;4.90;;;6.10;69.70;;;;;;2288572;54;21038;-69
2023/12/01 06:37:47;;;;;;;8.32;5.15;;;6.10;69.70;;;;;;2521183;54;21743;-70
2023/12/01 06:40:17;;;;;;;8.73;5.20;;;6.10;69.70;;;;;;2520868;54;21409;-68
2023/12/01 06:42:45;;;;;;;8.02;4.72;;;6.10;69.80;;;;;;2522169;54;21019;-68
2023/12/01 06:45:12;;;;;;;8.30;5.37;;;6.00;69.70;;;;;;2287464;55;21050;-69
2023/12/01 06:47:40;;;;;;;8.75;5.30;;;6.00;69.70;;;;;;2522277;54;21003;-67
2023/12/01 06:50:09;;;;;;;8.48;4.82;;;6.00;69.80;;;;;;2287940;55;21031;-67
2023/12/01 06:52:36;;;;;;;7.93;4.65;;;6.00;69.80;;;;;;2288059;55;20963;-67
2023/12/01 06:55:04;;;;;;;8.00;4.90;;;6.00;69.90;;;;;;2522592;54;20951;-68
2023/12/01 06:57:30;;;;;;;9.18;5.25;;;5.90;69.90;;;;;;2265364;55;20970;-68
2023/12/01 06:59:56;;;;;;;9.20;5.75;;;5.90;69.90;;;;;;2522351;54;21786;-68
2023/12/01 07:02:23;;;;;;;8.32;4.65;;;5.90;70.00;;;;;;2522209;54;20984;-67
2023/12/01 07:04:54;;;;;;;8.80;5.07;;;5.90;70.00;;;;;;2288626;55;20959;-68
2023/12/01 07:07:22;;;;;;;8.18;4.95;;;5.90;70.10;;;;;;2286096;55;20996;-68
2023/12/01 07:09:49;;;;;;;8.48;4.82;;;5.90;70.00;;;;;;2287945;55;20982;-68
2023/12/01 07:12:15;;;;;;;7.75;4.93;;;5.90;69.90;;;;;;2521508;54;20975;-67
2023/12/01 07:14:41;;;;;;;8.35;4.75;;;5.90;69.80;;;;;;2287985;55;20959;-68
2023/12/01 07:17:08;;;;;;;8.88;5.10;;;5.90;69.70;;;;;;2522511;54;20984;-68
2023/12/01 07:19:34;;;;;;;9.48;5.35;;;5.90;69.70;;;;;;2287755;55;20974;-68
2023/12/01 07:22:01;;;;;;;9.18;5.70;;;5.80;69.50;;;;;;2288394;55;20979;-68
2023/12/01 07:24:28;;;;;;;7.87;4.65;;;5.80;69.50;;;;;;2287179;55;21031;-68
2023/12/01 07:26:54;;;;;;;8.73;5.45;;;5.80;69.50;;;;;;2523201;54;21047;-68
2023/12/01 07:29:21;;;;;;;8.38;5.40;;;5.80;69.50;;;;;;2288396;54;21682;-67
2023/12/01 07:31:47;;;;;;;9.90;5.68;;;5.70;69.30;;;;;;2522855;54;20963;-67
2023/12/01 07:34:15;;;;;;;10.20;5.85;;;5.70;69.30;;;;;;2288287;54;21956;-70
2023/12/01 07:36:41;;;;;;;9.50;5.93;;;5.70;69.30;;;;;;2522933;54;21007;-68
2023/12/01 07:39:07;;;;;;;10.50;5.95;;;5.70;69.30;;;;;;2522568;54;20976;-68
2023/12/01 07:41:35;;;;;;;9.32;6.12;;;5.60;69.20;;;;;;2288541;55;20999;-68
2023/12/01 07:44:02;;;;;;;11.38;6.87;;;5.60;69.30;;;;;;2288575;56;21084;-67
2023/12/01 07:46:32;;;;;;;10.40;6.37;;;5.60;69.40;;;;;;2522425;54;20991;-68
2023/12/01 07:48:59;;;;;;;10.93;6.65;;;5.60;69.50;;;;;;2522391;54;20935;-67
2023/12/01 07:51:25;;;;;;;8.93;5.47;;;5.60;69.60;;;;;;2522223;54;21031;-68
2023/12/01 07:53:53;;;;;;;9.82;5.72;;;5.50;70.30;;;;;;2520057;54;21002;-69
2023/12/01 07:56:22;;;;;;;9.07;5.70;;;5.50;69.70;;;;;;2283207;55;21083;-69
2023/12/01 07:58:49;;;;;;;10.70;6.18;;;5.50;69.80;;;;;;2287886;55;20940;-69
2023/12/01 08:01:16;;;;;;;10.85;6.32;;;5.50;69.70;;;;;;2288437;55;20979;-68
2023/12/01 08:03:46;;;;;;;9.52;5.53;;;5.50;70.30;;;;;;2288337;55;21512;-69
2023/12/01 08:06:13;;;;;;;8.95;5.22;;;5.60;69.70;;;;;;2288767;55;21433;-69
2023/12/01 08:08:43;;;;;;;10.20;6.28;;;5.50;69.60;;;;;;2522433;54;21032;-68
2023/12/01 08:11:10;;;;;;;11.32;6.80;;;5.50;69.70;;;;;;2287904;55;21409;-70
2023/12/01 08:13:36;;;;;;;11.27;6.78;;;5.50;69.80;;;;;;2522942;54;21870;-69
2023/12/01 08:16:04;;;;;;;9.68;6.70;;;5.50;69.90;;;;;;2288150;55;20979;-68
2023/12/01 08:18:33;;;;;;;9.55;5.82;;;5.40;69.90;;;;;;2522395;54;21190;-67
2023/12/01 08:20:59;;;;;;;10.48;5.93;;;5.50;70.10;;;;;;2522201;54;21046;-69
2023/12/01 08:23:26;;;;;;;9.00;5.68;;;5.50;70.10;;;;;;2521540;54;21552;-68
2023/12/01 08:25:52;;;;;;;11.82;7.28;;;5.50;70.10;;;;;;2518044;54;20967;-69
2023/12/01 08:28:19;;;;;;;12.13;7.35;;;5.50;70.20;;;;;;2522023;54;20958;-68
2023/12/01 08:30:45;;;;;;;10.73;6.55;;;5.50;70.30;;;;;;2522896;54;20971;-68
2023/12/01 08:33:12;;;;;;;10.38;6.35;;;5.50;70.30;;;;;;2288190;55;20983;-68
2023/12/01 08:35:38;;;;;;;12.18;7.70;;;5.50;70.40;;;;;;2287779;55;21614;-68
2023/12/01 08:38:05;;;;;;;10.82;7.18;;;5.50;70.40;;;;;;2287739;55;21023;-69
2023/12/01 08:40:34;;;;;;;13.60;7.65;;;5.50;70.50;;;;;;2517270;54;21012;-67
2023/12/01 08:43:02;;;;;;;14.93;8.07;;;5.60;70.60;;;;;;2288352;55;21866;-70
2023/12/01 08:45:32;;;;;;;11.07;7.07;;;5.60;70.50;;;;;;2287711;55;21026;-68
2023/12/01 08:47:59;;;;;;;12.10;7.15;;;5.60;70.40;;;;;;2522383;54;21460;-69
2023/12/01 08:50:25;;;;;;;9.50;6.22;;;5.60;70.20;;;;;;2288298;55;21030;-68
2023/12/01 08:52:52;;;;;;;11.65;6.80;;;5.60;70.00;;;;;;2521633;54;20983;-67
2023/12/01 08:55:21;;;;;;;9.93;5.80;;;5.60;70.00;;;;;;2522627;54;20951;-68
2023/12/01 08:57:48;;;;;;;9.65;5.60;;;5.60;70.00;;;;;;2522389;54;20952;-68
2023/12/01 09:00:20;;;;;;;10.20;5.90;;;5.60;70.10;;;;;;2288122;55;21039;-69
2023/12/01 09:02:48;;;;;;;9.32;5.57;;;5.60;70.30;;;;;;2522549;54;20939;-68
2023/12/01 09:05:17;;;;;;;8.65;4.93;;;5.60;70.30;;;;;;2522974;54;20988;-68
2023/12/01 09:07:47;;;;;;;11.48;7.25;;;5.60;70.30;;;;;;2288574;55;20978;-68
2023/12/01 09:10:14;;;;;;;10.50;6.30;;;5.60;70.30;;;;;;2288524;55;21011;-67
2023/12/01 09:12:40;;;;;;;11.52;6.93;;;5.60;70.40;;;;;;2287842;55;20986;-69
2023/12/01 09:15:07;;;;;;;8.98;5.35;;;5.60;70.40;;;;;;2286229;55;20963;-67
2023/12/01 09:17:34;;;;;;;10.20;5.87;;;5.60;70.40;;;;;;2288317;54;21283;-67
2023/12/01 09:20:00;;;;;;;10.30;5.72;;;5.60;70.30;;;;;;2517677;54;20994;-68
2023/12/01 09:22:26;;;;;;;11.57;6.65;;;5.70;70.40;;;;;;2288402;55;20988;-67
2023/12/01 09:24:52;;;;;;;11.65;6.25;;;5.70;70.30;;;;;;2288882;55;20975;-67
2023/12/01 09:27:19;;;;;;;10.32;6.55;;;5.70;70.20;;;;;;2288374;55;21007;-67
2023/12/01 09:29:46;;;;;;;8.98;5.18;;;5.70;70.10;;;;;;2522567;54;20993;-66
2023/12/01 09:32:13;;;;;;;12.00;6.35;;;5.70;70.10;;;;;;2523222;54;20996;-67
2023/12/01 09:34:43;;;;;;;11.55;6.28;;;5.70;70.90;;;;;;2288701;55;21956;-68
2023/12/01 09:37:09;;;;;;;13.18;6.22;;;5.70;70.30;;;;;;2287936;55;21015;-68
2023/12/01 09:39:36;;;;;;;11.23;6.10;;;5.70;70.40;;;;;;2522824;54;20971;-66
2023/12/01 09:42:05;;;;;;;10.90;5.78;;;5.70;70.40;;;;;;2522639;54;21032;-68
2023/12/01 09:44:32;;;;;;;13.82;7.37;;;5.70;70.40;;;;;;2287088;55;21585;-67
2023/12/01 09:47:00;;;;;;;12.55;7.53;;;5.70;70.30;;;;;;2522000;54;21567;-68
2023/12/01 09:49:33;;;;;;;12.43;6.65;;;5.70;70.30;;;;;;2523060;54;21263;-67
2023/12/01 09:52:03;;;;;;;12.18;6.80;;;5.70;70.30;;;;;;2522272;54;21028;-68
2023/12/01 09:54:32;;;;;;;10.95;6.57;;;5.70;70.30;;;;;;2289765;55;21011;-67
2023/12/01 09:56:59;;;;;;;11.75;6.37;;;5.70;70.20;;;;;;2286309;55;21786;-68
2023/12/01 09:59:25;;;;;;;12.73;6.28;;;5.70;70.20;;;;;;2523246;54;21035;-68
2023/12/01 10:01:52;;;;;;;14.55;7.65;;;5.70;70.20;;;;;;2522984;54;21193;-68
2023/12/01 10:04:19;;;;;;;15.13;8.13;;;5.70;70.20;;;;;;2289302;55;20974;-67
2023/12/01 10:06:46;;;;;;;14.43;7.68;;;5.70;70.20;;;;;;2520171;54;21628;-68
2023/12/01 10:09:18;;;;;;;15.85;7.75;;;5.70;70.20;;;;;;2520038;54;21908;-68
2023/12/01 10:11:45;;;;;;;12.52;7.37;;;5.70;70.10;;;;;;2518055;54;21065;-67
2023/12/01 10:14:11;;;;;;;14.68;8.05;;;5.70;70.10;;;;;;2522804;54;20963;-67
2023/12/01 10:16:38;;;;;;;13.62;7.40;;;5.70;70.10;;;;;;2288956;55;21458;-68
2023/12/01 10:19:05;;;;;;;14.07;7.60;;;5.70;70.20;;;;;;2522809;54;20944;-68
2023/12/01 10:21:48;;;;;;;13.00;7.68;;;5.70;70.20;;;;;;2288746;54;20971;-67
2023/12/01 10:24:21;;;;;;;14.48;7.95;;;5.70;70.10;;;;;;2522515;54;21003;-68
2023/12/01 10:26:49;;;;;;;15.23;8.73;;;5.70;70.20;;;;;;2522155;54;21580;-67
2023/12/01 10:29:32;;;;;;;11.93;6.80;;;5.70;70.30;;;;;;2522107;54;20972;-69
2023/12/01 10:32:01;;;;;;;;;;;5.70;70.40;;;;;;2526340;54;20979;-68
2023/12/01 10:34:27;;;;;;;11.85;6.18;;;5.70;70.00;;;;;;2522706;54;20092;-67
2023/12/01 10:36:54;;;;;;;11.60;6.70;;;5.70;70.50;;;;;;2288501;55;21100;-67
2023/12/01 10:39:27;;;;;;;13.88;7.62;;;5.70;70.60;;;;;;2523105;54;21452;-67
2023/12/01 10:41:54;;;;;;;17.62;7.45;;;5.70;70.70;;;;;;2287695;55;20963;-67
2023/12/01 10:44:25;;;;;;;13.45;7.80;;;5.70;70.80;;;;;;2522917;54;21616;-68
2023/12/01 10:46:55;;;;;;;15.57;8.93;;;5.80;71.00;;;;;;2522479;54;21007;-67
2023/12/01 10:49:21;;;;;;;14.15;8.13;;;5.80;70.80;;;;;;2522831;54;20988;-68
2023/12/01 10:51:52;;;;;;;15.00;8.43;;;5.80;70.80;;;;;;2287854;55;20971;-69
2023/12/01 10:54:21;;;;;;;16.70;8.60;;;5.80;70.70;;;;;;2522253;54;21035;-67
2023/12/01 10:57:02;;;;;;;14.98;8.70;;;5.80;70.70;;;;;;2287636;56;21793;-67
2023/12/01 10:59:28;;;;;;;15.48;8.55;;;5.80;70.60;;;;;;2521441;54;21633;-68
2023/12/01 11:01:56;;;;;;;17.83;8.68;;;5.80;70.70;;;;;;2522110;54;20983;-68
2023/12/01 11:04:26;;;;;;;16.05;8.68;;;5.80;70.70;;;;;;2522992;54;21022;-68
2023/12/01 11:08:59;;;;;;;13.43;7.35;;;5.80;70.80;;;;;;2491582;54;20983;-69
2023/12/01 11:11:32;;;;;;;15.95;8.05;;;5.90;70.80;;;;;;2516049;54;20987;-68
2023/12/01 11:15:50;;;;;;;13.95;7.50;;;5.90;71.10;;;;;;2521130;54;20963;-69
2023/12/01 11:18:17;;;;;;;13.18;7.22;;;6.00;70.90;;;;;;2287913;55;21639;-69
2023/12/01 11:20:49;;;;;;;13.60;7.20;;;6.00;71.40;;;;;;2290399;55;21003;-67
2023/12/01 11:23:25;;;;;;;14.87;6.78;;;6.00;71.40;;;;;;2522065;54;20956;-69
2023/12/01 11:25:55;;;;;;;15.88;8.25;;;6.00;71.40;;;;;;2522287;54;21794;-67
2023/12/01 11:28:29;;;;;;;14.30;7.65;;;6.10;71.50;;;;;;2289316;55;20977;-68
2023/12/01 11:31:19;;;;;;;13.30;7.55;;;6.10;71.50;;;;;;2265637;56;20952;-68
2023/12/01 11:33:50;;;;;;;13.18;7.15;;;6.10;71.50;;;;;;2288577;55;20971;-68
2023/12/01 11:37:41;;;;;;;15.18;8.15;;;6.10;71.60;;;;;;2288397;55;21027;-68
2023/12/01 11:40:26;;;;;;;13.85;7.03;;;6.20;71.70;;;;;;2522353;54;21504;-68
2023/12/01 11:42:52;;;;;;;14.75;7.10;;;6.20;71.40;;;;;;2522256;54;20940;-69
2023/12/01 11:45:36;;;;;;;12.82;7.22;;;6.20;71.40;;;;;;2288267;55;20991;-68
2023/12/01 11:48:07;;;;;;;13.32;7.70;;;6.30;71.40;;;;;;2287925;55;20995;-68
2023/12/01 11:50:33;;;;;;;12.18;7.22;;;6.30;71.50;;;;;;2522340;54;21076;-69
2023/12/01 11:53:01;;;;;;;12.77;6.50;;;6.30;71.50;;;;;;2287775;55;20999;-67
2023/12/01 11:55:27;;;;;;;13.52;7.40;;;6.30;71.50;;;;;;2523088;54;21082;-69
2023/12/01 11:57:54;;;;;;;13.50;7.20;;;6.40;71.50;;;;;;2288083;55;21449;-67
2023/12/01 12:00:21;;;;;;;14.45;7.15;;;6.40;71.40;;;;;;2288558;55;21055;-68
2023/12/01 12:02:48;;;;;;;14.25;7.62;;;6.30;71.40;;;;;;2522431;54;20991;-68
2023/12/01 12:05:15;;;;;;;13.60;7.30;;;6.40;71.50;;;;;;2288039;55;22126;-69
2023/12/01 12:07:43;;;;;;;13.68;6.72;;;6.40;71.50;;;;;;2522969;54;20963;-68
2023/12/01 12:10:13;;;;;;;13.02;7.70;;;6.40;71.50;;;;;;2520827;54;21023;-67
2023/12/01 12:12:39;;;;;;;14.10;7.95;;;6.50;71.50;;;;;;2516047;54;21066;-68
2023/12/01 12:15:10;;;;;;;13.65;7.97;;;6.40;71.20;;;;;;2517992;54;20964;-68
2023/12/01 12:17:39;;;;;;;15.18;8.20;;;6.50;71.40;;;;;;2520860;54;20947;-67
2023/12/01 12:20:09;;;;;;;13.70;8.65;;;6.50;71.20;;;;;;2521867;54;20967;-68
2023/12/01 12:22:38;;;;;;;12.73;7.50;;;6.50;71.20;;;;;;2522407;54;20987;-67
2023/12/01 12:25:07;;;;;;;15.73;9.07;;;6.50;71.30;;;;;;2288479;55;20998;-67
2023/12/01 12:27:39;;;;;;;15.77;9.13;;;6.50;71.40;;;;;;2519998;54;21036;-69
2023/12/01 12:30:07;;;;;;;16.83;9.07;;;6.50;71.40;;;;;;2522020;54;21409;-70
2023/12/01 12:32:38;;;;;;;15.30;8.93;;;6.50;71.40;;;;;;2288799;55;20954;-67
2023/12/01 12:35:08;;;;;;;15.65;9.70;;;6.60;71.60;;;;;;2521847;54;21447;-70
2023/12/01 12:37:34;;;;;;;16.87;8.95;;;6.60;71.60;;;;;;2287757;55;21081;-69
2023/12/01 12:40:05;;;;;;;13.93;8.30;;;6.60;71.60;;;;;;2521128;54;21311;-69
2023/12/01 12:42:33;;;;;;;15.23;8.25;;;6.60;71.50;;;;;;2292284;55;20995;-67
2023/12/01 12:44:59;;;;;;;14.65;8.40;;;6.70;71.50;;;;;;2517444;54;20993;-69
2023/12/01 12:47:26;;;;;;;17.30;9.43;;;6.70;71.40;;;;;;2286849;54;20975;-67
2023/12/01 12:49:53;;;;;;;15.32;8.68;;;6.60;71.20;;;;;;2522312;54;21078;-68
2023/12/01 12:52:20;;;;;;;18.05;10.00;;;6.70;71.20;;;;;;2522249;54;21200;-68
2023/12/01 12:54:47;;;;;;;19.60;10.57;;;6.70;71.10;;;;;;2288410;55;21006;-68
2023/12/01 12:57:13;;;;;;;15.45;8.48;;;6.70;71.00;;;;;;2287370;55;20973;-69
2023/12/01 12:59:40;;;;;;;16.17;9.00;;;6.60;70.90;;;;;;2522788;54;20967;-69
2023/12/01 13:02:07;;;;;;;17.08;10.38;;;6.60;70.90;;;;;;2522554;54;21082;-68